sensor_id;sensor_type;location;lat;lon;timestamp;pressure;altitude;pressure_sealevel;temperature;humidity
76216;BME280;65010;50.190;18.930;2023-05-07T00:02:37;98468.19;;;12.29;59.54
76216;BME280;65010;50.190;18.930;2023-05-07T00:05:45;98475.00;;;12.38;59.84
76216;BME280;65010;50.190;18.930;2023-05-07T00:08:52;98476.91;;;12.44;59.24
76216;BME280;65010;50.190;18.930;2023-05-07T00:12:01;98479.84;;;12.50;59.01
76216;BME280;65010;50.190;18.930;2023-05-07T00:15:09;98478.25;;;12.40;59.13
76216;BME280;65010;50.190;18.930;2023-05-07T00:18:18;98478.09;;;12.27;59.66
76216;BME280;65010;50.190;18.930;2023-05-07T00:21:25;98478.19;;;12.34;59.44
76216;BME280;65010;50.190;18.930;2023-05-07T00:24:31;98471.53;;;12.38;59.33
76216;BME280;65010;50.190;18.930;2023-05-07T00:27:42;98474.25;;;12.44;59.58
76216;BME280;65010;50.190;18.930;2023-05-07T00:30:48;98479.22;;;12.47;58.56
76216;BME280;65010;50.190;18.930;2023-05-07T00:33:54;98480.31;;;12.53;59.33
76216;BME280;65010;50.190;18.930;2023-05-07T00:37:01;98483.09;;;12.66;59.12
76216;BME280;65010;50.190;18.930;2023-05-07T00:40:09;98485.94;;;12.65;58.14
76216;BME280;65010;50.190;18.930;2023-05-07T00:43:17;98495.03;;;12.47;58.93
76216;BME280;65010;50.190;18.930;2023-05-07T00:46:24;98490.63;;;12.40;58.83
76216;BME280;65010;50.190;18.930;2023-05-07T00:49:37;98494.53;;;12.29;59.03
76216;BME280;65010;50.190;18.930;2023-05-07T00:52:46;98494.91;;;12.26;59.29
76216;BME280;65010;50.190;18.930;2023-05-07T00:55:52;98496.34;;;12.28;59.64
76216;BME280;65010;50.190;18.930;2023-05-07T00:59:02;98493.28;;;12.25;59.20
76216;BME280;65010;50.190;18.930;2023-05-07T01:02:08;98483.25;;;12.20;59.95
76216;BME280;65010;50.190;18.930;2023-05-07T01:05:19;98496.16;;;12.15;59.29
76216;BME280;65010;50.190;18.930;2023-05-07T01:08:29;98497.78;;;12.16;59.36
76216;BME280;65010;50.190;18.930;2023-05-07T01:11:39;98496.44;;;12.20;59.38
76216;BME280;65010;50.190;18.930;2023-05-07T01:14:48;98496.97;;;12.16;59.18
76216;BME280;65010;50.190;18.930;2023-05-07T01:17:56;98498.00;;;12.15;59.04
76216;BME280;65010;50.190;18.930;2023-05-07T01:21:11;98502.63;;;12.13;59.36
76216;BME280;65010;50.190;18.930;2023-05-07T01:24:23;98501.69;;;12.20;59.68
76216;BME280;65010;50.190;18.930;2023-05-07T01:27:29;98502.06;;;12.32;59.12
76216;BME280;65010;50.190;18.930;2023-05-07T01:30:42;98497.81;;;12.31;59.12
76216;BME280;65010;50.190;18.930;2023-05-07T01:33:59;98511.63;;;12.33;58.91
76216;BME280;65010;50.190;18.930;2023-05-07T01:37:07;98502.06;;;12.32;58.51
76216;BME280;65010;50.190;18.930;2023-05-07T01:40:16;98504.06;;;12.15;58.61
76216;BME280;65010;50.190;18.930;2023-05-07T01:43:23;98499.88;;;12.06;58.87
76216;BME280;65010;50.190;18.930;2023-05-07T01:46:31;98503.22;;;12.00;59.32
76216;BME280;65010;50.190;18.930;2023-05-07T01:49:39;98503.94;;;11.94;59.15
76216;BME280;65010;50.190;18.930;2023-05-07T01:52:47;98500.50;;;11.93;59.82
76216;BME280;65010;50.190;18.930;2023-05-07T01:56:05;98496.75;;;12.02;59.85
76216;BME280;65010;50.190;18.930;2023-05-07T01:59:13;98497.88;;;12.08;59.93
76216;BME280;65010;50.190;18.930;2023-05-07T02:02:20;98494.72;;;12.13;59.96
76216;BME280;65010;50.190;18.930;2023-05-07T02:05:28;98499.81;;;12.29;59.64
76216;BME280;65010;50.190;18.930;2023-05-07T02:08:58;98505.09;;;12.29;58.94
76216;BME280;65010;50.190;18.930;2023-05-07T02:12:09;98500.72;;;12.21;59.34
76216;BME280;65010;50.190;18.930;2023-05-07T02:15:16;98495.72;;;12.26;59.02
76216;BME280;65010;50.190;18.930;2023-05-07T02:18:25;98499.25;;;12.34;59.03
76216;BME280;65010;50.190;18.930;2023-05-07T02:21:31;98498.53;;;12.40;58.81
76216;BME280;65010;50.190;18.930;2023-05-07T02:24:37;98493.72;;;12.43;58.72
76216;BME280;65010;50.190;18.930;2023-05-07T02:27:46;98497.28;;;12.51;58.48
76216;BME280;65010;50.190;18.930;2023-05-07T02:30:54;98497.41;;;12.57;58.33
76216;BME280;65010;50.190;18.930;2023-05-07T02:34:02;98497.19;;;12.59;57.73
76216;BME280;65010;50.190;18.930;2023-05-07T02:37:11;98492.84;;;12.51;57.90
76216;BME280;65010;50.190;18.930;2023-05-07T02:40:20;98500.84;;;12.58;57.58
76216;BME280;65010;50.190;18.930;2023-05-07T02:43:30;98500.03;;;12.57;57.41
76216;BME280;65010;50.190;18.930;2023-05-07T02:46:36;98509.09;;;12.55;57.19
76216;BME280;65010;50.190;18.930;2023-05-07T02:49:46;98514.13;;;12.50;57.21
76216;BME280;65010;50.190;18.930;2023-05-07T02:52:53;98515.09;;;12.48;57.59
76216;BME280;65010;50.190;18.930;2023-05-07T02:56:00;98513.09;;;12.36;57.10
76216;BME280;65010;50.190;18.930;2023-05-07T02:59:11;98517.34;;;12.22;57.14
76216;BME280;65010;50.190;18.930;2023-05-07T03:02:17;98523.22;;;12.09;57.29
76216;BME280;65010;50.190;18.930;2023-05-07T03:05:26;98516.94;;;11.95;57.31
76216;BME280;65010;50.190;18.930;2023-05-07T03:08:32;98525.72;;;11.87;57.77
76216;BME280;65010;50.190;18.930;2023-05-07T03:11:39;98532.34;;;11.83;57.70
76216;BME280;65010;50.190;18.930;2023-05-07T03:14:48;98537.13;;;11.80;57.73
76216;BME280;65010;50.190;18.930;2023-05-07T03:17:54;98531.28;;;11.69;57.71
76216;BME280;65010;50.190;18.930;2023-05-07T03:21:02;98546.50;;;11.59;57.51
76216;BME280;65010;50.190;18.930;2023-05-07T03:24:08;98553.59;;;11.59;58.49
76216;BME280;65010;50.190;18.930;2023-05-07T03:27:14;98555.16;;;11.68;58.61
76216;BME280;65010;50.190;18.930;2023-05-07T03:30:24;98554.59;;;11.81;58.38
76216;BME280;65010;50.190;18.930;2023-05-07T03:33:32;98559.41;;;11.92;58.00
76216;BME280;65010;50.190;18.930;2023-05-07T03:36:39;98550.88;;;11.90;57.59
76216;BME280;65010;50.190;18.930;2023-05-07T03:39:46;98550.00;;;11.98;57.48
76216;BME280;65010;50.190;18.930;2023-05-07T03:42:54;98556.91;;;11.99;56.94
76216;BME280;65010;50.190;18.930;2023-05-07T03:46:04;98559.56;;;11.99;57.22
76216;BME280;65010;50.190;18.930;2023-05-07T03:49:10;98567.25;;;12.00;56.96
76216;BME280;65010;50.190;18.930;2023-05-07T03:52:16;98558.63;;;12.06;57.01
76216;BME280;65010;50.190;18.930;2023-05-07T03:55:27;98569.47;;;12.12;56.92
76216;BME280;65010;50.190;18.930;2023-05-07T03:58:34;98561.56;;;12.12;56.25
76216;BME280;65010;50.190;18.930;2023-05-07T04:01:47;98573.81;;;12.04;56.70
76216;BME280;65010;50.190;18.930;2023-05-07T04:04:57;98574.41;;;11.92;56.61
76216;BME280;65010;50.190;18.930;2023-05-07T04:08:04;98578.06;;;11.91;56.61
76216;BME280;65010;50.190;18.930;2023-05-07T04:11:14;98573.91;;;11.73;56.65
76216;BME280;65010;50.190;18.930;2023-05-07T04:14:21;98593.84;;;11.67;56.67
76216;BME280;65010;50.190;18.930;2023-05-07T04:17:29;98596.53;;;11.59;57.04
76216;BME280;65010;50.190;18.930;2023-05-07T04:20:37;98599.84;;;11.53;56.90
76216;BME280;65010;50.190;18.930;2023-05-07T04:23:47;98597.59;;;11.42;57.47
76216;BME280;65010;50.190;18.930;2023-05-07T04:26:54;98605.38;;;11.35;57.58
76216;BME280;65010;50.190;18.930;2023-05-07T04:30:01;98609.50;;;11.29;57.48
76216;BME280;65010;50.190;18.930;2023-05-07T04:33:16;98608.56;;;11.22;57.48
76216;BME280;65010;50.190;18.930;2023-05-07T04:36:24;98623.03;;;11.26;57.80
76216;BME280;65010;50.190;18.930;2023-05-07T04:39:36;98625.81;;;11.25;57.66
76216;BME280;65010;50.190;18.930;2023-05-07T04:42:42;98630.06;;;11.18;57.39
76216;BME280;65010;50.190;18.930;2023-05-07T04:45:50;98625.84;;;11.08;57.44
76216;BME280;65010;50.190;18.930;2023-05-07T04:49:01;98645.63;;;10.96;57.50
76216;BME280;65010;50.190;18.930;2023-05-07T04:52:09;98647.91;;;10.99;58.40
76216;BME280;65010;50.190;18.930;2023-05-07T04:55:15;98653.97;;;11.00;58.16
76216;BME280;65010;50.190;18.930;2023-05-07T04:58:22;98663.69;;;10.99;57.58
76216;BME280;65010;50.190;18.930;2023-05-07T05:01:28;98659.75;;;10.95;57.51
76216;BME280;65010;50.190;18.930;2023-05-07T05:04:37;98649.75;;;10.91;57.76
76216;BME280;65010;50.190;18.930;2023-05-07T05:07:44;98658.13;;;10.94;57.08
76216;BME280;65010;50.190;18.930;2023-05-07T05:10:51;98664.34;;;10.93;57.08
76216;BME280;65010;50.190;18.930;2023-05-07T05:13:58;98664.34;;;10.93;57.34
76216;BME280;65010;50.190;18.930;2023-05-07T05:17:07;98662.72;;;10.92;57.15
76216;BME280;65010;50.190;18.930;2023-05-07T05:20:16;98670.78;;;10.91;57.22
76216;BME280;65010;50.190;18.930;2023-05-07T05:23:24;98674.75;;;10.86;57.74
76216;BME280;65010;50.190;18.930;2023-05-07T05:26:30;98686.91;;;10.79;57.92
76216;BME280;65010;50.190;18.930;2023-05-07T05:29:37;98692.50;;;10.84;58.50
76216;BME280;65010;50.190;18.930;2023-05-07T05:32:46;98689.84;;;10.93;58.79
76216;BME280;65010;50.190;18.930;2023-05-07T05:35:56;98692.97;;;10.96;58.16
76216;BME280;65010;50.190;18.930;2023-05-07T05:39:01;98693.09;;;11.03;58.01
76216;BME280;65010;50.190;18.930;2023-05-07T05:42:09;98698.69;;;11.08;57.78
76216;BME280;65010;50.190;18.930;2023-05-07T05:45:15;98696.19;;;11.15;57.32
76216;BME280;65010;50.190;18.930;2023-05-07T05:48:22;98704.59;;;11.26;56.82
76216;BME280;65010;50.190;18.930;2023-05-07T05:51:30;98698.81;;;11.31;56.02
76216;BME280;65010;50.190;18.930;2023-05-07T05:54:37;98700.59;;;11.39;56.59
76216;BME280;65010;50.190;18.930;2023-05-07T05:57:43;98711.28;;;11.37;55.81
76216;BME280;65010;50.190;18.930;2023-05-07T06:00:50;98709.00;;;11.34;55.59
76216;BME280;65010;50.190;18.930;2023-05-07T06:03:59;98714.28;;;11.26;56.17
76216;BME280;65010;50.190;18.930;2023-05-07T06:07:08;98714.63;;;11.23;56.36
76216;BME280;65010;50.190;18.930;2023-05-07T06:10:14;98716.56;;;11.29;56.92
76216;BME280;65010;50.190;18.930;2023-05-07T06:13:21;98722.16;;;11.34;56.02
76216;BME280;65010;50.190;18.930;2023-05-07T06:16:28;98725.78;;;11.33;55.78
76216;BME280;65010;50.190;18.930;2023-05-07T06:19:35;98724.59;;;11.36;56.41
76216;BME280;65010;50.190;18.930;2023-05-07T06:22:44;98727.44;;;11.34;55.92
76216;BME280;65010;50.190;18.930;2023-05-07T06:25:51;98727.25;;;11.27;55.79
76216;BME280;65010;50.190;18.930;2023-05-07T06:29:06;98733.69;;;11.17;55.94
76216;BME280;65010;50.190;18.930;2023-05-07T06:32:14;98740.94;;;11.06;56.01
76216;BME280;65010;50.190;18.930;2023-05-07T06:35:21;98734.88;;;11.06;56.36
76216;BME280;65010;50.190;18.930;2023-05-07T06:38:31;98730.09;;;11.01;56.42
76216;BME280;65010;50.190;18.930;2023-05-07T06:41:37;98741.59;;;11.08;55.64
76216;BME280;65010;50.190;18.930;2023-05-07T06:44:52;98739.94;;;11.07;55.69
76216;BME280;65010;50.190;18.930;2023-05-07T06:47:58;98743.72;;;11.05;55.91
76216;BME280;65010;50.190;18.930;2023-05-07T06:51:10;98755.25;;;11.04;55.48
76216;BME280;65010;50.190;18.930;2023-05-07T06:54:19;98760.34;;;10.89;55.96
76216;BME280;65010;50.190;18.930;2023-05-07T06:57:27;98757.06;;;10.87;55.82
76216;BME280;65010;50.190;18.930;2023-05-07T07:00:40;98759.03;;;10.85;55.49
76216;BME280;65010;50.190;18.930;2023-05-07T07:03:48;98759.53;;;10.80;55.48
76216;BME280;65010;50.190;18.930;2023-05-07T07:06:56;98768.25;;;10.73;55.50
76216;BME280;65010;50.190;18.930;2023-05-07T07:10:08;98773.16;;;10.76;56.07
76216;BME280;65010;50.190;18.930;2023-05-07T07:13:14;98766.44;;;10.57;55.45
76216;BME280;65010;50.190;18.930;2023-05-07T07:16:21;98775.47;;;10.54;55.81
76216;BME280;65010;50.190;18.930;2023-05-07T07:19:27;98777.75;;;10.57;55.93
76216;BME280;65010;50.190;18.930;2023-05-07T07:22:36;98780.06;;;10.52;55.68
76216;BME280;65010;50.190;18.930;2023-05-07T07:25:50;98786.50;;;10.58;56.32
76216;BME280;65010;50.190;18.930;2023-05-07T07:28:57;98796.34;;;10.72;55.47
76216;BME280;65010;50.190;18.930;2023-05-07T07:32:04;98797.50;;;10.86;54.96
76216;BME280;65010;50.190;18.930;2023-05-07T07:35:13;98797.16;;;10.97;54.29
76216;BME280;65010;50.190;18.930;2023-05-07T07:38:20;98797.78;;;11.16;54.39
76216;BME280;65010;50.190;18.930;2023-05-07T07:41:29;98801.94;;;11.10;53.87
76216;BME280;65010;50.190;18.930;2023-05-07T07:44:37;98803.25;;;11.06;53.91
76216;BME280;65010;50.190;18.930;2023-05-07T07:47:46;98802.41;;;11.14;53.98
76216;BME280;65010;50.190;18.930;2023-05-07T07:50:52;98808.84;;;11.19;53.30
76216;BME280;65010;50.190;18.930;2023-05-07T07:53:59;98812.13;;;11.13;53.03
76216;BME280;65010;50.190;18.930;2023-05-07T07:57:09;98810.00;;;11.08;52.54
76216;BME280;65010;50.190;18.930;2023-05-07T08:00:18;98815.25;;;10.92;53.32
76216;BME280;65010;50.190;18.930;2023-05-07T08:03:28;98817.88;;;10.92;53.50
76216;BME280;65010;50.190;18.930;2023-05-07T08:06:37;98819.84;;;10.98;53.36
76216;BME280;65010;50.190;18.930;2023-05-07T08:09:44;98822.16;;;10.85;52.62
76216;BME280;65010;50.190;18.930;2023-05-07T08:12:56;98823.63;;;10.79;53.00
76216;BME280;65010;50.190;18.930;2023-05-07T08:16:02;98822.00;;;10.95;54.04
76216;BME280;65010;50.190;18.930;2023-05-07T08:19:10;98827.75;;;11.15;52.95
76216;BME280;65010;50.190;18.930;2023-05-07T08:22:16;98820.34;;;11.35;52.54
76216;BME280;65010;50.190;18.930;2023-05-07T08:25:24;98823.78;;;11.43;51.74
76216;BME280;65010;50.190;18.930;2023-05-07T08:28:32;98821.94;;;11.52;51.09
76216;BME280;65010;50.190;18.930;2023-05-07T08:31:39;98838.75;;;11.51;51.10
76216;BME280;65010;50.190;18.930;2023-05-07T08:34:45;98835.75;;;11.54;51.04
76216;BME280;65010;50.190;18.930;2023-05-07T08:37:51;98835.59;;;11.56;51.29
76216;BME280;65010;50.190;18.930;2023-05-07T08:40:57;98840.53;;;11.59;51.37
76216;BME280;65010;50.190;18.930;2023-05-07T08:44:12;98849.22;;;11.67;51.89
76216;BME280;65010;50.190;18.930;2023-05-07T08:47:23;98855.47;;;11.75;51.04
76216;BME280;65010;50.190;18.930;2023-05-07T08:50:40;98858.44;;;11.72;51.55
76216;BME280;65010;50.190;18.930;2023-05-07T08:53:49;98857.56;;;11.87;51.77
76216;BME280;65010;50.190;18.930;2023-05-07T08:57:00;98863.81;;;11.95;50.57
76216;BME280;65010;50.190;18.930;2023-05-07T09:00:12;98875.16;;;11.95;50.96
76216;BME280;65010;50.190;18.930;2023-05-07T09:03:24;98869.91;;;11.95;50.69
76216;BME280;65010;50.190;18.930;2023-05-07T09:07:19;98865.56;;;12.02;49.90
76216;BME280;65010;50.190;18.930;2023-05-07T09:10:26;98867.22;;;12.03;50.44
76216;BME280;65010;50.190;18.930;2023-05-07T09:13:31;98873.16;;;12.05;50.36
76216;BME280;65010;50.190;18.930;2023-05-07T09:16:41;98883.69;;;12.05;50.12
76216;BME280;65010;50.190;18.930;2023-05-07T09:19:47;98884.66;;;12.04;49.77
76216;BME280;65010;50.190;18.930;2023-05-07T09:22:55;98887.97;;;11.98;49.90
76216;BME280;65010;50.190;18.930;2023-05-07T09:26:02;98880.81;;;11.67;50.38
76216;BME280;65010;50.190;18.930;2023-05-07T09:29:16;98887.88;;;11.75;50.36
76216;BME280;65010;50.190;18.930;2023-05-07T09:32:25;98897.44;;;11.68;50.19
76216;BME280;65010;50.190;18.930;2023-05-07T09:35:34;98891.38;;;11.59;49.80
76216;BME280;65010;50.190;18.930;2023-05-07T09:38:51;98897.63;;;11.34;50.55
76216;BME280;65010;50.190;18.930;2023-05-07T09:41:59;98902.91;;;11.42;51.12
76216;BME280;65010;50.190;18.930;2023-05-07T09:45:10;98899.44;;;11.49;50.49
76216;BME280;65010;50.190;18.930;2023-05-07T09:48:21;98901.41;;;11.47;50.81
76216;BME280;65010;50.190;18.930;2023-05-07T09:51:40;98911.63;;;11.51;51.09
76216;BME280;65010;50.190;18.930;2023-05-07T09:54:57;98912.09;;;11.46;50.31
76216;BME280;65010;50.190;18.930;2023-05-07T09:58:07;98911.78;;;11.24;50.72
76216;BME280;65010;50.190;18.930;2023-05-07T10:01:24;98913.94;;;11.29;51.77
76216;BME280;65010;50.190;18.930;2023-05-07T10:04:35;98922.13;;;11.26;50.79
76216;BME280;65010;50.190;18.930;2023-05-07T10:07:45;98922.47;;;11.23;51.35
76216;BME280;65010;50.190;18.930;2023-05-07T10:10:52;98910.28;;;11.22;50.88
76216;BME280;65010;50.190;18.930;2023-05-07T10:14:03;98925.09;;;11.23;51.29
76216;BME280;65010;50.190;18.930;2023-05-07T10:17:12;98933.50;;;11.26;50.87
76216;BME280;65010;50.190;18.930;2023-05-07T10:20:26;98934.66;;;11.32;50.74
76216;BME280;65010;50.190;18.930;2023-05-07T10:23:34;98937.44;;;11.47;51.18
76216;BME280;65010;50.190;18.930;2023-05-07T10:26:45;98934.16;;;11.61;51.09
76216;BME280;65010;50.190;18.930;2023-05-07T10:30:08;98935.16;;;11.60;49.63
76216;BME280;65010;50.190;18.930;2023-05-07T10:33:25;98938.41;;;11.54;50.60
76216;BME280;65010;50.190;18.930;2023-05-07T10:36:38;98951.25;;;11.65;50.56
76216;BME280;65010;50.190;18.930;2023-05-07T10:39:49;98946.78;;;11.74;49.87
76216;BME280;65010;50.190;18.930;2023-05-07T10:42:56;98941.22;;;11.61;49.90
76216;BME280;65010;50.190;18.930;2023-05-07T10:46:13;98943.69;;;11.54;50.69
76216;BME280;65010;50.190;18.930;2023-05-07T10:49:29;98941.06;;;11.54;51.46
76216;BME280;65010;50.190;18.930;2023-05-07T10:52:43;98941.25;;;11.53;50.28
76216;BME280;65010;50.190;18.930;2023-05-07T10:56:26;98954.41;;;11.53;51.08
76216;BME280;65010;50.190;18.930;2023-05-07T10:59:45;98955.72;;;11.40;51.24
76216;BME280;65010;50.190;18.930;2023-05-07T11:03:06;98954.06;;;11.31;51.26
76216;BME280;65010;50.190;18.930;2023-05-07T11:06:31;98966.16;;;11.07;51.05
76216;BME280;65010;50.190;18.930;2023-05-07T11:10:03;98967.97;;;10.99;51.95
76216;BME280;65010;50.190;18.930;2023-05-07T11:13:42;98973.06;;;10.92;52.15
76216;BME280;65010;50.190;18.930;2023-05-07T11:17:15;98973.38;;;10.97;51.99
76216;BME280;65010;50.190;18.930;2023-05-07T11:20:46;98964.31;;;11.00;52.24
76216;BME280;65010;50.190;18.930;2023-05-07T11:24:11;98971.91;;;10.95;52.04
76216;BME280;65010;50.190;18.930;2023-05-07T11:27:36;98974.16;;;10.89;52.47
76216;BME280;65010;50.190;18.930;2023-05-07T11:30:42;98971.38;;;10.91;52.59
76216;BME280;65010;50.190;18.930;2023-05-07T11:33:54;98978.63;;;10.97;53.13
76216;BME280;65010;50.190;18.930;2023-05-07T11:37:00;98980.63;;;11.03;52.03
76216;BME280;65010;50.190;18.930;2023-05-07T11:40:24;98986.50;;;10.89;52.51
76216;BME280;65010;50.190;18.930;2023-05-07T11:43:33;98994.25;;;10.91;52.13
76216;BME280;65010;50.190;18.930;2023-05-07T11:46:43;98983.38;;;10.85;51.99
76216;BME280;65010;50.190;18.930;2023-05-07T11:49:51;98991.75;;;10.81;52.02
76216;BME280;65010;50.190;18.930;2023-05-07T11:52:58;98986.75;;;10.69;52.19
76216;BME280;65010;50.190;18.930;2023-05-07T11:56:09;98985.63;;;10.64;52.69
76216;BME280;65010;50.190;18.930;2023-05-07T11:59:20;98993.28;;;10.57;52.31
76216;BME280;65010;50.190;18.930;2023-05-07T12:02:26;98993.50;;;10.64;52.16
76216;BME280;65010;50.190;18.930;2023-05-07T12:05:33;98995.78;;;10.67;52.48
76216;BME280;65010;50.190;18.930;2023-05-07T12:08:45;98991.44;;;10.84;52.24
76216;BME280;65010;50.190;18.930;2023-05-07T12:11:52;98987.03;;;11.09;51.29
76216;BME280;65010;50.190;18.930;2023-05-07T12:15:01;98991.41;;;11.26;50.75
76216;BME280;65010;50.190;18.930;2023-05-07T12:18:08;98995.19;;;11.48;50.83
76216;BME280;65010;50.190;18.930;2023-05-07T12:21:17;98993.88;;;11.61;49.84
76216;BME280;65010;50.190;18.930;2023-05-07T12:24:24;99003.09;;;11.65;49.36
76216;BME280;65010;50.190;18.930;2023-05-07T12:27:31;98999.47;;;11.49;49.66
76216;BME280;65010;50.190;18.930;2023-05-07T12:30:45;99009.81;;;11.35;50.53
76216;BME280;65010;50.190;18.930;2023-05-07T12:33:53;99008.50;;;11.31;50.48
76216;BME280;65010;50.190;18.930;2023-05-07T12:37:05;99022.31;;;11.24;50.69
76216;BME280;65010;50.190;18.930;2023-05-07T12:40:15;99006.41;;;11.00;50.83
76216;BME280;65010;50.190;18.930;2023-05-07T12:43:31;99022.19;;;11.00;50.93
76216;BME280;65010;50.190;18.930;2023-05-07T12:46:41;99027.44;;;11.00;50.79
76216;BME280;65010;50.190;18.930;2023-05-07T12:49:47;99028.28;;;10.92;50.95
76216;BME280;65010;50.190;18.930;2023-05-07T12:52:54;99027.91;;;10.87;51.34
76216;BME280;65010;50.190;18.930;2023-05-07T12:56:01;99033.66;;;10.82;51.58
76216;BME280;65010;50.190;18.930;2023-05-07T12:59:07;99026.25;;;10.78;51.62
76216;BME280;65010;50.190;18.930;2023-05-07T13:02:16;99028.06;;;10.85;52.17
76216;BME280;65010;50.190;18.930;2023-05-07T13:05:22;99018.88;;;10.89;51.60
76216;BME280;65010;50.190;18.930;2023-05-07T13:08:30;99024.78;;;10.83;51.67
76216;BME280;65010;50.190;18.930;2023-05-07T13:11:44;99022.69;;;10.95;51.06
76216;BME280;65010;50.190;18.930;2023-05-07T13:14:51;99013.84;;;11.04;50.65
76216;BME280;65010;50.190;18.930;2023-05-07T13:17:59;99020.28;;;11.18;50.34
76216;BME280;65010;50.190;18.930;2023-05-07T13:21:06;99019.44;;;11.18;49.75
76216;BME280;65010;50.190;18.930;2023-05-07T13:24:14;99039.84;;;11.16;49.64
76216;BME280;65010;50.190;18.930;2023-05-07T13:27:23;99032.91;;;10.98;49.56
76216;BME280;65010;50.190;18.930;2023-05-07T13:30:29;99041.03;;;10.79;50.69
76216;BME280;65010;50.190;18.930;2023-05-07T13:33:38;99037.69;;;10.68;50.94
76216;BME280;65010;50.190;18.930;2023-05-07T13:36:47;99026.13;;;10.53;51.10
76216;BME280;65010;50.190;18.930;2023-05-07T13:39:53;99040.38;;;10.42;51.85
76216;BME280;65010;50.190;18.930;2023-05-07T13:42:59;99034.78;;;10.45;52.43
76216;BME280;65010;50.190;18.930;2023-05-07T13:46:06;99046.47;;;10.51;52.21
76216;BME280;65010;50.190;18.930;2023-05-07T13:49:15;99031.19;;;10.46;51.74
76216;BME280;65010;50.190;18.930;2023-05-07T13:52:21;99035.78;;;10.44;51.33
76216;BME280;65010;50.190;18.930;2023-05-07T13:55:29;99030.47;;;10.36;51.20
76216;BME280;65010;50.190;18.930;2023-05-07T13:58:36;99029.81;;;10.34;51.53
76216;BME280;65010;50.190;18.930;2023-05-07T14:01:57;99033.78;;;10.38;51.60
76216;BME280;65010;50.190;18.930;2023-05-07T14:05:07;99034.75;;;10.37;51.40
76216;BME280;65010;50.190;18.930;2023-05-07T14:08:15;99048.19;;;10.34;51.51
76216;BME280;65010;50.190;18.930;2023-05-07T14:11:23;99044.09;;;10.32;51.58
76216;BME280;65010;50.190;18.930;2023-05-07T14:14:29;99047.34;;;10.25;51.86
76216;BME280;65010;50.190;18.930;2023-05-07T14:17:35;99042.56;;;10.29;51.73
76216;BME280;65010;50.190;18.930;2023-05-07T14:20:43;99055.28;;;10.34;52.23
76216;BME280;65010;50.190;18.930;2023-05-07T14:23:51;99047.88;;;10.37;51.92
76216;BME280;65010;50.190;18.930;2023-05-07T14:26:58;99057.38;;;10.30;51.94
76216;BME280;65010;50.190;18.930;2023-05-07T14:30:06;99061.81;;;10.29;51.84
76216;BME280;65010;50.190;18.930;2023-05-07T14:33:13;99061.25;;;10.18;52.75
76216;BME280;65010;50.190;18.930;2023-05-07T14:36:22;99074.31;;;10.09;52.13
76216;BME280;65010;50.190;18.930;2023-05-07T14:39:28;99079.59;;;9.92;52.79
76216;BME280;65010;50.190;18.930;2023-05-07T14:42:34;99070.63;;;9.66;53.45
76216;BME280;65010;50.190;18.930;2023-05-07T14:45:41;99084.13;;;9.72;53.58
76216;BME280;65010;50.190;18.930;2023-05-07T14:48:47;99080.97;;;9.68;54.07
76216;BME280;65010;50.190;18.930;2023-05-07T14:51:57;99082.25;;;9.64;53.27
76216;BME280;65010;50.190;18.930;2023-05-07T14:55:05;99083.59;;;9.68;53.37
76216;BME280;65010;50.190;18.930;2023-05-07T14:58:12;99095.09;;;9.85;53.61
76216;BME280;65010;50.190;18.930;2023-05-07T15:01:20;99083.03;;;9.92;52.72
76216;BME280;65010;50.190;18.930;2023-05-07T15:04:26;99092.78;;;10.00;52.42
76216;BME280;65010;50.190;18.930;2023-05-07T15:07:35;99097.78;;;10.11;52.38
76216;BME280;65010;50.190;18.930;2023-05-07T15:10:41;99087.75;;;10.33;52.51
76216;BME280;65010;50.190;18.930;2023-05-07T15:13:48;99088.09;;;10.56;50.98
76216;BME280;65010;50.190;18.930;2023-05-07T15:16:56;99084.69;;;10.72;51.11
76216;BME280;65010;50.190;18.930;2023-05-07T15:20:03;99090.69;;;10.82;50.90
76216;BME280;65010;50.190;18.930;2023-05-07T15:23:13;99092.84;;;10.86;50.23
76216;BME280;65010;50.190;18.930;2023-05-07T15:26:23;99090.50;;;10.83;50.08
76216;BME280;65010;50.190;18.930;2023-05-07T15:29:28;99094.13;;;10.82;50.06
76216;BME280;65010;50.190;18.930;2023-05-07T15:32:36;99091.13;;;10.77;50.58
76216;BME280;65010;50.190;18.930;2023-05-07T15:35:44;99097.53;;;10.75;50.29
76216;BME280;65010;50.190;18.930;2023-05-07T15:38:56;99072.09;;;10.49;50.30
76216;BME280;65010;50.190;18.930;2023-05-07T15:42:04;99102.72;;;10.58;51.04
76216;BME280;65010;50.190;18.930;2023-05-07T15:45:11;99112.13;;;10.43;50.77
76216;BME280;65010;50.190;18.930;2023-05-07T15:48:17;99115.19;;;10.30;51.45
76216;BME280;65010;50.190;18.930;2023-05-07T15:51:24;99123.97;;;10.21;51.32
76216;BME280;65010;50.190;18.930;2023-05-07T15:54:33;99114.31;;;10.03;51.62
76216;BME280;65010;50.190;18.930;2023-05-07T15:57:40;99118.97;;;9.92;52.21
76216;BME280;65010;50.190;18.930;2023-05-07T16:00:46;99122.41;;;9.92;52.25
76216;BME280;65010;50.190;18.930;2023-05-07T16:03:53;99123.84;;;9.86;52.62
76216;BME280;65010;50.190;18.930;2023-05-07T16:06:59;99121.94;;;9.79;53.10
76216;BME280;65010;50.190;18.930;2023-05-07T16:10:10;99115.44;;;9.83;52.79
76216;BME280;65010;50.190;18.930;2023-05-07T16:13:16;99125.09;;;9.82;52.71
76216;BME280;65010;50.190;18.930;2023-05-07T16:16:23;99128.44;;;9.75;52.78
76216;BME280;65010;50.190;18.930;2023-05-07T16:19:31;99122.16;;;9.67;53.31
76216;BME280;65010;50.190;18.930;2023-05-07T16:22:38;99131.13;;;9.65;53.10
76216;BME280;65010;50.190;18.930;2023-05-07T16:25:47;99131.81;;;9.67;53.03
76216;BME280;65010;50.190;18.930;2023-05-07T16:28:54;99124.78;;;9.67;52.93
76216;BME280;65010;50.190;18.930;2023-05-07T16:32:00;99119.28;;;9.61;53.02